sensor_id;sensor_type;location;lat;lon;timestamp;P1;durP1;ratioP1;P2;durP2;ratioP2
52854;SDS011;38719;51.418;7.286;2022-12-10T00:02:02;43.55;;;18.98;;
52854;SDS011;38719;51.418;7.286;2022-12-10T00:04:30;43.17;;;18.15;;
52854;SDS011;38719;51.418;7.286;2022-12-10T00:06:57;38.85;;;18.13;;
52854;SDS011;38719;51.418;7.286;2022-12-10T00:09:25;41.85;;;19.00;;
52854;SDS011;38719;51.418;7.286;2022-12-10T00:11:52;40.78;;;17.92;;
52854;SDS011;38719;51.418;7.286;2022-12-10T00:14:20;41.70;;;19.13;;
52854;SDS011;38719;51.418;7.286;2022-12-10T00:16:47;38.58;;;17.35;;
52854;SDS011;38719;51.418;7.286;2022-12-10T00:19:16;38.13;;;17.38;;
52854;SDS011;38719;51.418;7.286;2022-12-10T00:21:44;38.22;;;16.08;;
52854;SDS011;38719;51.418;7.286;2022-12-10T00:24:12;36.05;;;17.15;;
52854;SDS011;38719;51.418;7.286;2022-12-10T00:26:40;40.35;;;18.30;;
52854;SDS011;38719;51.418;7.286;2022-12-10T00:29:09;46.72;;;18.58;;
52854;SDS011;38719;51.418;7.286;2022-12-10T00:31:38;44.65;;;17.35;;
52854;SDS011;38719;51.418;7.286;2022-12-10T00:34:07;47.53;;;19.15;;
52854;SDS011;38719;51.418;7.286;2022-12-10T00:36:38;40.47;;;18.50;;
52854;SDS011;38719;51.418;7.286;2022-12-10T00:39:09;39.17;;;18.40;;
52854;SDS011;38719;51.418;7.286;2022-12-10T00:41:38;43.33;;;19.45;;
52854;SDS011;38719;51.418;7.286;2022-12-10T00:44:06;45.13;;;17.70;;
52854;SDS011;38719;51.418;7.286;2022-12-10T00:46:33;39.03;;;18.33;;
52854;SDS011;38719;51.418;7.286;2022-12-10T00:49:01;39.92;;;18.02;;
52854;SDS011;38719;51.418;7.286;2022-12-10T00:51:30;42.92;;;18.67;;
52854;SDS011;38719;51.418;7.286;2022-12-10T00:53:59;44.03;;;18.77;;
52854;SDS011;38719;51.418;7.286;2022-12-10T00:56:28;43.80;;;18.02;;
52854;SDS011;38719;51.418;7.286;2022-12-10T00:58:57;43.97;;;17.90;;
52854;SDS011;38719;51.418;7.286;2022-12-10T01:01:25;43.40;;;18.88;;
52854;SDS011;38719;51.418;7.286;2022-12-10T01:03:55;39.72;;;17.27;;
52854;SDS011;38719;51.418;7.286;2022-12-10T01:06:25;42.10;;;18.65;;
52854;SDS011;38719;51.418;7.286;2022-12-10T01:08:55;44.60;;;19.45;;
52854;SDS011;38719;51.418;7.286;2022-12-10T01:11:26;46.25;;;19.42;;
52854;SDS011;38719;51.418;7.286;2022-12-10T01:13:56;44.15;;;18.13;;
52854;SDS011;38719;51.418;7.286;2022-12-10T01:16:25;41.80;;;19.35;;
52854;SDS011;38719;51.418;7.286;2022-12-10T01:18:53;48.83;;;20.52;;
52854;SDS011;38719;51.418;7.286;2022-12-10T01:21:21;43.83;;;18.52;;
52854;SDS011;38719;51.418;7.286;2022-12-10T01:23:51;46.60;;;19.50;;
52854;SDS011;38719;51.418;7.286;2022-12-10T01:26:20;47.13;;;19.17;;
52854;SDS011;38719;51.418;7.286;2022-12-10T01:28:50;41.03;;;19.17;;
52854;SDS011;38719;51.418;7.286;2022-12-10T01:31:19;43.22;;;19.10;;
52854;SDS011;38719;51.418;7.286;2022-12-10T01:33:49;39.75;;;18.13;;
52854;SDS011;38719;51.418;7.286;2022-12-10T01:36:18;40.10;;;17.73;;
52854;SDS011;38719;51.418;7.286;2022-12-10T01:38:47;44.25;;;18.10;;
52854;SDS011;38719;51.418;7.286;2022-12-10T01:41:16;47.47;;;19.58;;
52854;SDS011;38719;51.418;7.286;2022-12-10T01:43:52;44.25;;;19.30;;
52854;SDS011;38719;51.418;7.286;2022-12-10T01:46:21;42.03;;;18.45;;
52854;SDS011;38719;51.418;7.286;2022-12-10T01:48:50;45.42;;;19.67;;
52854;SDS011;38719;51.418;7.286;2022-12-10T01:51:17;45.70;;;19.35;;
52854;SDS011;38719;51.418;7.286;2022-12-10T01:53:45;53.47;;;24.85;;
52854;SDS011;38719;51.418;7.286;2022-12-10T01:56:15;62.03;;;29.98;;
52854;SDS011;38719;51.418;7.286;2022-12-10T01:58:43;70.57;;;28.35;;
52854;SDS011;38719;51.418;7.286;2022-12-10T02:01:14;41.72;;;18.25;;
52854;SDS011;38719;51.418;7.286;2022-12-10T02:03:51;39.03;;;18.00;;
52854;SDS011;38719;51.418;7.286;2022-12-10T02:06:29;40.17;;;16.92;;
52854;SDS011;38719;51.418;7.286;2022-12-10T02:09:04;72.45;;;32.20;;
52854;SDS011;38719;51.418;7.286;2022-12-10T02:11:40;101.03;;;39.97;;
52854;SDS011;38719;51.418;7.286;2022-12-10T02:14:12;107.93;;;41.97;;
52854;SDS011;38719;51.418;7.286;2022-12-10T02:16:48;119.68;;;44.95;;
52854;SDS011;38719;51.418;7.286;2022-12-10T02:19:25;55.97;;;24.73;;
52854;SDS011;38719;51.418;7.286;2022-12-10T02:22:02;43.15;;;18.50;;
52854;SDS011;38719;51.418;7.286;2022-12-10T02:24:33;113.70;;;47.80;;
52854;SDS011;38719;51.418;7.286;2022-12-10T02:27:04;55.13;;;26.77;;
52854;SDS011;38719;51.418;7.286;2022-12-10T02:32:09;42.17;;;19.45;;
52854;SDS011;38719;51.418;7.286;2022-12-10T02:34:40;27.48;;;14.68;;
52854;SDS011;38719;51.418;7.286;2022-12-10T02:37:10;29.40;;;14.20;;
52854;SDS011;38719;51.418;7.286;2022-12-10T02:39:43;139.63;;;52.63;;
52854;SDS011;38719;51.418;7.286;2022-12-10T02:42:15;59.25;;;27.60;;
52854;SDS011;38719;51.418;7.286;2022-12-10T02:44:46;25.88;;;13.68;;
52854;SDS011;38719;51.418;7.286;2022-12-10T02:47:15;30.83;;;15.45;;
52854;SDS011;38719;51.418;7.286;2022-12-10T02:49:45;53.22;;;25.45;;
52854;SDS011;38719;51.418;7.286;2022-12-10T02:52:17;42.60;;;22.77;;
52854;SDS011;38719;51.418;7.286;2022-12-10T02:54:46;61.13;;;25.88;;
52854;SDS011;38719;51.418;7.286;2022-12-10T02:57:18;49.25;;;23.17;;
52854;SDS011;38719;51.418;7.286;2022-12-10T03:02:45;32.75;;;16.00;;
52854;SDS011;38719;51.418;7.286;2022-12-10T03:05:27;39.72;;;18.77;;
52854;SDS011;38719;51.418;7.286;2022-12-10T03:08:03;33.13;;;17.58;;
52854;SDS011;38719;51.418;7.286;2022-12-10T03:10:43;30.60;;;16.88;;
52854;SDS011;38719;51.418;7.286;2022-12-10T03:15:49;34.03;;;17.02;;
52854;SDS011;38719;51.418;7.286;2022-12-10T03:18:19;31.23;;;17.33;;
52854;SDS011;38719;51.418;7.286;2022-12-10T03:20:52;32.13;;;15.15;;
52854;SDS011;38719;51.418;7.286;2022-12-10T03:23:23;27.50;;;13.15;;
52854;SDS011;38719;51.418;7.286;2022-12-10T03:25:53;28.27;;;13.75;;
52854;SDS011;38719;51.418;7.286;2022-12-10T03:28:21;28.70;;;13.85;;
52854;SDS011;38719;51.418;7.286;2022-12-10T03:30:52;23.20;;;11.75;;
52854;SDS011;38719;51.418;7.286;2022-12-10T03:33:20;27.98;;;12.38;;
52854;SDS011;38719;51.418;7.286;2022-12-10T03:35:48;28.92;;;11.95;;
52854;SDS011;38719;51.418;7.286;2022-12-10T03:38:16;25.95;;;12.15;;
52854;SDS011;38719;51.418;7.286;2022-12-10T03:40:45;25.40;;;11.48;;
52854;SDS011;38719;51.418;7.286;2022-12-10T03:43:12;24.02;;;11.98;;
52854;SDS011;38719;51.418;7.286;2022-12-10T03:45:40;24.45;;;12.10;;
52854;SDS011;38719;51.418;7.286;2022-12-10T03:48:09;24.58;;;11.48;;
52854;SDS011;38719;51.418;7.286;2022-12-10T03:50:37;26.15;;;12.38;;
52854;SDS011;38719;51.418;7.286;2022-12-10T03:53:04;25.27;;;11.98;;
52854;SDS011;38719;51.418;7.286;2022-12-10T03:55:32;28.48;;;14.07;;
52854;SDS011;38719;51.418;7.286;2022-12-10T03:57:59;26.50;;;13.82;;
52854;SDS011;38719;51.418;7.286;2022-12-10T04:00:28;27.92;;;13.40;;
52854;SDS011;38719;51.418;7.286;2022-12-10T04:02:56;29.33;;;13.80;;
52854;SDS011;38719;51.418;7.286;2022-12-10T04:05:25;28.88;;;15.13;;
52854;SDS011;38719;51.418;7.286;2022-12-10T04:07:52;30.95;;;13.35;;
52854;SDS011;38719;51.418;7.286;2022-12-10T04:10:20;28.35;;;13.65;;
52854;SDS011;38719;51.418;7.286;2022-12-10T04:12:47;30.40;;;12.55;;
52854;SDS011;38719;51.418;7.286;2022-12-10T04:15:37;25.33;;;12.77;;
52854;SDS011;38719;51.418;7.286;2022-12-10T04:18:23;20.67;;;10.30;;
52854;SDS011;38719;51.418;7.286;2022-12-10T04:20:52;20.42;;;11.35;;
52854;SDS011;38719;51.418;7.286;2022-12-10T04:23:45;18.55;;;9.68;;
52854;SDS011;38719;51.418;7.286;2022-12-10T04:26:39;22.08;;;10.27;;
52854;SDS011;38719;51.418;7.286;2022-12-10T04:29:19;18.90;;;9.88;;
52854;SDS011;38719;51.418;7.286;2022-12-10T04:31:46;20.88;;;11.07;;
52854;SDS011;38719;51.418;7.286;2022-12-10T04:34:14;21.27;;;10.40;;
52854;SDS011;38719;51.418;7.286;2022-12-10T04:36:43;20.42;;;9.75;;
52854;SDS011;38719;51.418;7.286;2022-12-10T04:39:11;21.25;;;9.00;;
52854;SDS011;38719;51.418;7.286;2022-12-10T04:41:40;20.13;;;9.90;;
52854;SDS011;38719;51.418;7.286;2022-12-10T04:44:08;17.70;;;9.57;;
52854;SDS011;38719;51.418;7.286;2022-12-10T04:46:37;21.52;;;10.77;;
52854;SDS011;38719;51.418;7.286;2022-12-10T04:49:04;18.95;;;9.32;;
52854;SDS011;38719;51.418;7.286;2022-12-10T04:51:35;22.70;;;10.77;;
52854;SDS011;38719;51.418;7.286;2022-12-10T04:54:06;19.80;;;9.73;;
52854;SDS011;38719;51.418;7.286;2022-12-10T04:56:34;24.15;;;10.48;;
52854;SDS011;38719;51.418;7.286;2022-12-10T04:59:02;19.20;;;9.63;;
52854;SDS011;38719;51.418;7.286;2022-12-10T05:01:30;27.40;;;10.77;;
52854;SDS011;38719;51.418;7.286;2022-12-10T05:03:59;17.55;;;10.02;;
52854;SDS011;38719;51.418;7.286;2022-12-10T05:06:27;21.17;;;9.20;;
52854;SDS011;38719;51.418;7.286;2022-12-10T05:08:55;18.65;;;10.38;;
52854;SDS011;38719;51.418;7.286;2022-12-10T05:11:25;18.25;;;9.75;;
52854;SDS011;38719;51.418;7.286;2022-12-10T05:13:54;19.70;;;10.77;;
52854;SDS011;38719;51.418;7.286;2022-12-10T05:16:23;16.60;;;9.60;;
52854;SDS011;38719;51.418;7.286;2022-12-10T05:18:53;20.55;;;10.85;;
52854;SDS011;38719;51.418;7.286;2022-12-10T05:21:21;21.13;;;10.60;;
52854;SDS011;38719;51.418;7.286;2022-12-10T05:23:50;21.13;;;10.45;;
52854;SDS011;38719;51.418;7.286;2022-12-10T05:26:19;23.23;;;10.98;;
52854;SDS011;38719;51.418;7.286;2022-12-10T05:28:50;19.52;;;9.60;;
52854;SDS011;38719;51.418;7.286;2022-12-10T05:31:20;19.40;;;9.95;;
52854;SDS011;38719;51.418;7.286;2022-12-10T05:33:50;18.48;;;9.75;;
52854;SDS011;38719;51.418;7.286;2022-12-10T05:36:19;18.08;;;9.82;;
52854;SDS011;38719;51.418;7.286;2022-12-10T05:38:49;21.95;;;10.38;;
52854;SDS011;38719;51.418;7.286;2022-12-10T05:41:17;22.33;;;10.57;;
52854;SDS011;38719;51.418;7.286;2022-12-10T05:43:46;20.95;;;9.75;;
52854;SDS011;38719;51.418;7.286;2022-12-10T05:46:17;18.35;;;9.32;;
52854;SDS011;38719;51.418;7.286;2022-12-10T05:48:46;19.20;;;9.40;;
52854;SDS011;38719;51.418;7.286;2022-12-10T05:51:14;22.48;;;10.05;;
52854;SDS011;38719;51.418;7.286;2022-12-10T05:53:43;22.08;;;9.05;;
52854;SDS011;38719;51.418;7.286;2022-12-10T05:56:12;17.27;;;10.00;;
52854;SDS011;38719;51.418;7.286;2022-12-10T05:58:41;20.40;;;10.95;;
52854;SDS011;38719;51.418;7.286;2022-12-10T06:01:11;17.52;;;8.90;;
52854;SDS011;38719;51.418;7.286;2022-12-10T06:03:41;18.17;;;10.50;;
52854;SDS011;38719;51.418;7.286;2022-12-10T06:06:09;15.40;;;8.50;;
52854;SDS011;38719;51.418;7.286;2022-12-10T06:08:37;18.23;;;8.65;;
52854;SDS011;38719;51.418;7.286;2022-12-10T06:11:06;19.23;;;10.15;;
52854;SDS011;38719;51.418;7.286;2022-12-10T06:13:35;18.77;;;9.23;;
52854;SDS011;38719;51.418;7.286;2022-12-10T06:16:04;20.00;;;9.93;;
52854;SDS011;38719;51.418;7.286;2022-12-10T06:18:32;18.60;;;9.65;;
52854;SDS011;38719;51.418;7.286;2022-12-10T06:21:03;14.40;;;8.80;;
52854;SDS011;38719;51.418;7.286;2022-12-10T06:23:31;21.00;;;9.15;;
52854;SDS011;38719;51.418;7.286;2022-12-10T06:26:02;17.92;;;9.15;;
52854;SDS011;38719;51.418;7.286;2022-12-10T06:28:30;14.57;;;8.15;;
52854;SDS011;38719;51.418;7.286;2022-12-10T06:30:59;19.67;;;9.98;;
52854;SDS011;38719;51.418;7.286;2022-12-10T06:33:27;19.55;;;8.13;;
52854;SDS011;38719;51.418;7.286;2022-12-10T06:35:55;14.93;;;9.57;;
52854;SDS011;38719;51.418;7.286;2022-12-10T06:38:26;19.90;;;9.95;;
52854;SDS011;38719;51.418;7.286;2022-12-10T06:40:54;28.35;;;11.70;;
52854;SDS011;38719;51.418;7.286;2022-12-10T06:43:21;25.02;;;11.90;;
52854;SDS011;38719;51.418;7.286;2022-12-10T06:45:49;23.58;;;11.77;;
52854;SDS011;38719;51.418;7.286;2022-12-10T06:48:17;23.75;;;11.15;;
52854;SDS011;38719;51.418;7.286;2022-12-10T06:50:44;22.25;;;10.57;;
52854;SDS011;38719;51.418;7.286;2022-12-10T06:53:12;26.73;;;11.40;;
52854;SDS011;38719;51.418;7.286;2022-12-10T06:55:41;25.13;;;11.88;;
52854;SDS011;38719;51.418;7.286;2022-12-10T06:58:08;24.88;;;11.77;;
52854;SDS011;38719;51.418;7.286;2022-12-10T07:00:36;22.35;;;11.27;;
52854;SDS011;38719;51.418;7.286;2022-12-10T07:03:04;26.65;;;13.25;;
52854;SDS011;38719;51.418;7.286;2022-12-10T07:05:32;26.08;;;11.88;;
52854;SDS011;38719;51.418;7.286;2022-12-10T07:07:59;23.45;;;11.32;;
52854;SDS011;38719;51.418;7.286;2022-12-10T07:10:27;20.83;;;11.80;;
52854;SDS011;38719;51.418;7.286;2022-12-10T07:12:56;21.77;;;11.70;;
52854;SDS011;38719;51.418;7.286;2022-12-10T07:15:23;21.20;;;10.82;;
52854;SDS011;38719;51.418;7.286;2022-12-10T07:17:53;20.05;;;10.63;;
52854;SDS011;38719;51.418;7.286;2022-12-10T07:20:21;22.63;;;11.13;;
52854;SDS011;38719;51.418;7.286;2022-12-10T07:22:48;22.27;;;11.38;;
52854;SDS011;38719;51.418;7.286;2022-12-10T07:25:16;20.23;;;10.55;;
52854;SDS011;38719;51.418;7.286;2022-12-10T07:27:46;22.65;;;11.18;;
52854;SDS011;38719;51.418;7.286;2022-12-10T07:30:16;22.38;;;10.82;;
52854;SDS011;38719;51.418;7.286;2022-12-10T07:32:43;21.67;;;9.90;;
52854;SDS011;38719;51.418;7.286;2022-12-10T07:35:11;18.13;;;9.80;;
52854;SDS011;38719;51.418;7.286;2022-12-10T07:37:38;23.70;;;10.73;;
52854;SDS011;38719;51.418;7.286;2022-12-10T07:40:06;21.85;;;11.02;;
52854;SDS011;38719;51.418;7.286;2022-12-10T07:42:35;18.98;;;10.40;;
52854;SDS011;38719;51.418;7.286;2022-12-10T07:45:03;27.27;;;10.65;;
52854;SDS011;38719;51.418;7.286;2022-12-10T07:47:35;25.70;;;11.63;;
52854;SDS011;38719;51.418;7.286;2022-12-10T07:50:03;23.73;;;11.07;;
52854;SDS011;38719;51.418;7.286;2022-12-10T07:52:32;23.23;;;10.95;;
52854;SDS011;38719;51.418;7.286;2022-12-10T07:55:00;23.00;;;11.25;;
52854;SDS011;38719;51.418;7.286;2022-12-10T07:57:28;22.58;;;11.27;;
52854;SDS011;38719;51.418;7.286;2022-12-10T07:59:56;26.70;;;10.90;;
52854;SDS011;38719;51.418;7.286;2022-12-10T08:02:24;25.33;;;12.65;;
52854;SDS011;38719;51.418;7.286;2022-12-10T08:04:53;26.85;;;12.35;;
52854;SDS011;38719;51.418;7.286;2022-12-10T08:07:20;26.17;;;12.00;;
52854;SDS011;38719;51.418;7.286;2022-12-10T08:09:48;23.25;;;11.65;;
52854;SDS011;38719;51.418;7.286;2022-12-10T08:12:15;29.23;;;12.98;;
52854;SDS011;38719;51.418;7.286;2022-12-10T08:14:43;24.35;;;11.98;;
52854;SDS011;38719;51.418;7.286;2022-12-10T08:17:10;29.90;;;12.45;;
52854;SDS011;38719;51.418;7.286;2022-12-10T08:19:38;25.20;;;12.80;;
52854;SDS011;38719;51.418;7.286;2022-12-10T08:22:07;26.13;;;12.30;;
52854;SDS011;38719;51.418;7.286;2022-12-10T08:24:34;27.45;;;14.00;;
52854;SDS011;38719;51.418;7.286;2022-12-10T08:27:02;22.23;;;11.82;;
52854;SDS011;38719;51.418;7.286;2022-12-10T08:29:29;25.10;;;13.02;;
52854;SDS011;38719;51.418;7.286;2022-12-10T08:31:57;25.80;;;13.60;;
52854;SDS011;38719;51.418;7.286;2022-12-10T08:34:24;28.35;;;13.60;;
52854;SDS011;38719;51.418;7.286;2022-12-10T08:36:52;34.58;;;15.25;;
52854;SDS011;38719;51.418;7.286;2022-12-10T08:39:21;34.03;;;16.75;;
52854;SDS011;38719;51.418;7.286;2022-12-10T08:41:48;35.05;;;14.75;;
52854;SDS011;38719;51.418;7.286;2022-12-10T08:44:16;31.15;;;15.82;;
52854;SDS011;38719;51.418;7.286;2022-12-10T08:46:43;32.95;;;15.48;;
52854;SDS011;38719;51.418;7.286;2022-12-10T08:49:11;33.20;;;15.48;;
52854;SDS011;38719;51.418;7.286;2022-12-10T08:51:40;33.65;;;15.70;;
52854;SDS011;38719;51.418;7.286;2022-12-10T08:54:07;35.67;;;16.02;;
52854;SDS011;38719;51.418;7.286;2022-12-10T08:56:36;32.33;;;15.48;;
52854;SDS011;38719;51.418;7.286;2022-12-10T08:59:05;39.17;;;17.27;;
52854;SDS011;38719;51.418;7.286;2022-12-10T09:01:33;41.78;;;17.27;;
52854;SDS011;38719;51.418;7.286;2022-12-10T09:04:00;47.35;;;18.42;;
52854;SDS011;38719;51.418;7.286;2022-12-10T09:06:29;47.17;;;19.25;;
52854;SDS011;38719;51.418;7.286;2022-12-10T09:08:57;40.90;;;17.30;;
52854;SDS011;38719;51.418;7.286;2022-12-10T09:11:26;41.08;;;18.52;;
52854;SDS011;38719;51.418;7.286;2022-12-10T09:13:57;40.65;;;18.73;;
52854;SDS011;38719;51.418;7.286;2022-12-10T09:16:27;47.85;;;19.42;;
52854;SDS011;38719;51.418;7.286;2022-12-10T09:18:56;49.13;;;19.25;;
52854;SDS011;38719;51.418;7.286;2022-12-10T09:21:23;45.53;;;19.77;;
52854;SDS011;38719;51.418;7.286;2022-12-10T09:23:51;47.70;;;19.67;;
52854;SDS011;38719;51.418;7.286;2022-12-10T09:26:19;49.13;;;20.10;;
52854;SDS011;38719;51.418;7.286;2022-12-10T09:28:47;51.90;;;20.15;;
52854;SDS011;38719;51.418;7.286;2022-12-10T09:31:17;45.65;;;18.73;;
52854;SDS011;38719;51.418;7.286;2022-12-10T09:33:47;49.28;;;19.73;;
52854;SDS011;38719;51.418;7.286;2022-12-10T09:36:16;45.38;;;19.38;;
52854;SDS011;38719;51.418;7.286;2022-12-10T09:38:45;51.60;;;19.17;;
52854;SDS011;38719;51.418;7.286;2022-12-10T09:41:18;48.67;;;18.52;;
52854;SDS011;38719;51.418;7.286;2022-12-10T09:46:35;48.58;;;17.98;;
52854;SDS011;38719;51.418;7.286;2022-12-10T09:49:13;43.70;;;19.10;;
52854;SDS011;38719;51.418;7.286;2022-12-10T09:51:48;44.40;;;18.67;;
52854;SDS011;38719;51.418;7.286;2022-12-10T09:54:22;45.72;;;18.85;;
52854;SDS011;38719;51.418;7.286;2022-12-10T09:56:52;42.33;;;17.17;;
52854;SDS011;38719;51.418;7.286;2022-12-10T09:59:23;42.15;;;17.65;;
52854;SDS011;38719;51.418;7.286;2022-12-10T10:02:00;43.30;;;17.88;;
52854;SDS011;38719;51.418;7.286;2022-12-10T10:04:39;46.55;;;18.27;;
52854;SDS011;38719;51.418;7.286;2022-12-10T10:07:08;55.88;;;19.17;;
52854;SDS011;38719;51.418;7.286;2022-12-10T10:09:46;45.08;;;19.67;;
52854;SDS011;38719;51.418;7.286;2022-12-10T10:12:15;48.50;;;18.33;;
52854;SDS011;38719;51.418;7.286;2022-12-10T10:14:43;46.22;;;16.30;;
52854;SDS011;38719;51.418;7.286;2022-12-10T10:17:14;52.80;;;19.15;;
52854;SDS011;38719;51.418;7.286;2022-12-10T10:19:46;50.03;;;17.80;;
52854;SDS011;38719;51.418;7.286;2022-12-10T10:22:15;47.33;;;16.80;;
52854;SDS011;38719;51.418;7.286;2022-12-10T10:24:43;44.00;;;18.55;;
52854;SDS011;38719;51.418;7.286;2022-12-10T10:27:13;54.13;;;20.08;;
52854;SDS011;38719;51.418;7.286;2022-12-10T10:29:42;46.55;;;18.92;;
52854;SDS011;38719;51.418;7.286;2022-12-10T10:32:14;48.50;;;19.10;;
52854;SDS011;38719;51.418;7.286;2022-12-10T10:34:43;50.22;;;18.92;;
52854;SDS011;38719;51.418;7.286;2022-12-10T10:37:14;53.13;;;22.10;;
52854;SDS011;38719;51.418;7.286;2022-12-10T10:39:46;52.95;;;20.90;;
52854;SDS011;38719;51.418;7.286;2022-12-10T10:42:21;55.47;;;19.52;;
52854;SDS011;38719;51.418;7.286;2022-12-10T10:44:54;55.55;;;20.65;;
52854;SDS011;38719;51.418;7.286;2022-12-10T10:47:25;57.03;;;21.13;;
52854;SDS011;38719;51.418;7.286;2022-12-10T10:50:00;44.42;;;18.63;;
52854;SDS011;38719;51.418;7.286;2022-12-10T10:52:29;46.50;;;19.10;;
52854;SDS011;38719;51.418;7.286;2022-12-10T10:54:57;50.25;;;19.83;;
52854;SDS011;38719;51.418;7.286;2022-12-10T10:57:27;45.40;;;18.73;;
52854;SDS011;38719;51.418;7.286;2022-12-10T11:00:00;44.95;;;18.23;;
52854;SDS011;38719;51.418;7.286;2022-12-10T11:05:05;50.13;;;19.67;;
52854;SDS011;38719;51.418;7.286;2022-12-10T11:07:36;57.33;;;20.90;;
52854;SDS011;38719;51.418;7.286;2022-12-10T11:10:15;78.18;;;33.55;;
52854;SDS011;38719;51.418;7.286;2022-12-10T11:12:44;84.60;;;37.05;;
52854;SDS011;38719;51.418;7.286;2022-12-10T11:15:28;46.60;;;19.58;;
52854;SDS011;38719;51.418;7.286;2022-12-10T11:17:59;51.03;;;20.08;;
52854;SDS011;38719;51.418;7.286;2022-12-10T11:20:28;58.03;;;20.27;;
52854;SDS011;38719;51.418;7.286;2022-12-10T11:23:08;47.33;;;18.52;;
52854;SDS011;38719;51.418;7.286;2022-12-10T11:25:39;51.23;;;20.53;;
52854;SDS011;38719;51.418;7.286;2022-12-10T11:28:19;45.65;;;19.40;;
52854;SDS011;38719;51.418;7.286;2022-12-10T11:31:02;52.67;;;19.23;;
52854;SDS011;38719;51.418;7.286;2022-12-10T11:33:48;57.63;;;19.05;;
52854;SDS011;38719;51.418;7.286;2022-12-10T11:36:29;60.83;;;21.48;;
52854;SDS011;38719;51.418;7.286;2022-12-10T11:39:07;53.33;;;20.10;;
52854;SDS011;38719;51.418;7.286;2022-12-10T11:41:46;50.28;;;20.27;;
52854;SDS011;38719;51.418;7.286;2022-12-10T11:44:22;54.40;;;21.00;;
52854;SDS011;38719;51.418;7.286;2022-12-10T11:47:12;50.10;;;19.45;;
52854;SDS011;38719;51.418;7.286;2022-12-10T11:49:54;52.55;;;19.73;;
52854;SDS011;38719;51.418;7.286;2022-12-10T11:52:38;50.83;;;20.05;;
52854;SDS011;38719;51.418;7.286;2022-12-10T11:55:24;50.60;;;19.83;;
52854;SDS011;38719;51.418;7.286;2022-12-10T11:58:04;59.15;;;20.30;;
52854;SDS011;38719;51.418;7.286;2022-12-10T12:00:45;59.92;;;23.35;;
52854;SDS011;38719;51.418;7.286;2022-12-10T12:03:34;65.85;;;21.80;;
52854;SDS011;38719;51.418;7.286;2022-12-10T12:06:22;49.72;;;20.27;;
52854;SDS011;38719;51.418;7.286;2022-12-10T12:09:04;50.50;;;19.73;;
52854;SDS011;38719;51.418;7.286;2022-12-10T12:11:46;53.78;;;20.67;;
52854;SDS011;38719;51.418;7.286;2022-12-10T12:14:22;53.03;;;20.80;;
52854;SDS011;38719;51.418;7.286;2022-12-10T12:16:57;59.53;;;20.65;;
52854;SDS011;38719;51.418;7.286;2022-12-10T12:19:32;54.67;;;20.77;;
52854;SDS011;38719;51.418;7.286;2022-12-10T12:22:21;48.63;;;18.88;;
52854;SDS011;38719;51.418;7.286;2022-12-10T12:27:22;48.90;;;18.50;;
52854;SDS011;38719;51.418;7.286;2022-12-10T12:30:00;54.30;;;20.35;;
52854;SDS011;38719;51.418;7.286;2022-12-10T12:32:32;50.47;;;19.20;;
52854;SDS011;38719;51.418;7.286;2022-12-10T12:35:10;59.33;;;19.70;;
52854;SDS011;38719;51.418;7.286;2022-12-10T12:37:44;54.55;;;19.00;;
52854;SDS011;38719;51.418;7.286;2022-12-10T12:40:16;47.53;;;19.95;;
52854;SDS011;38719;51.418;7.286;2022-12-10T12:42:54;49.80;;;20.60;;
52854;SDS011;38719;51.418;7.286;2022-12-10T12:45:30;50.13;;;21.55;;
52854;SDS011;38719;51.418;7.286;2022-12-10T12:48:04;50.35;;;20.52;;
52854;SDS011;38719;51.418;7.286;2022-12-10T12:50:44;66.50;;;22.98;;
52854;SDS011;38719;51.418;7.286;2022-12-10T12:53:16;58.97;;;22.65;;
52854;SDS011;38719;51.418;7.286;2022-12-10T12:55:46;56.08;;;21.95;;
52854;SDS011;38719;51.418;7.286;2022-12-10T12:58:24;60.20;;;22.27;;
52854;SDS011;38719;51.418;7.286;2022-12-10T13:01:00;54.40;;;21.90;;
52854;SDS011;38719;51.418;7.286;2022-12-10T13:03:38;54.08;;;20.92;;
52854;SDS011;38719;51.418;7.286;2022-12-10T13:06:12;61.92;;;21.90;;
52854;SDS011;38719;51.418;7.286;2022-12-10T13:08:47;57.25;;;24.67;;
52854;SDS011;38719;51.418;7.286;2022-12-10T13:11:17;60.72;;;23.80;;
52854;SDS011;38719;51.418;7.286;2022-12-10T13:19:53;48.97;;;19.25;;
52854;SDS011;38719;51.418;7.286;2022-12-10T13:23:03;52.65;;;20.75;;
52854;SDS011;38719;51.418;7.286;2022-12-10T13:25:39;51.00;;;21.35;;
52854;SDS011;38719;51.418;7.286;2022-12-10T13:28:17;63.00;;;24.13;;
52854;SDS011;38719;51.418;7.286;2022-12-10T13:31:16;52.22;;;20.15;;
52854;SDS011;38719;51.418;7.286;2022-12-10T13:33:47;49.80;;;21.20;;
52854;SDS011;38719;51.418;7.286;2022-12-10T13:36:24;49.47;;;20.05;;
52854;SDS011;38719;51.418;7.286;2022-12-10T13:38:57;56.55;;;20.35;;
52854;SDS011;38719;51.418;7.286;2022-12-10T13:41:39;61.33;;;22.80;;
52854;SDS011;38719;51.418;7.286;2022-12-10T13:44:35;51.00;;;21.85;;
52854;SDS011;38719;51.418;7.286;2022-12-10T13:47:24;57.25;;;21.45;;
52854;SDS011;38719;51.418;7.286;2022-12-10T13:49:54;54.60;;;21.83;;
52854;SDS011;38719;51.418;7.286;2022-12-10T13:52:26;54.75;;;21.33;;
52854;SDS011;38719;51.418;7.286;2022-12-10T13:55:05;54.75;;;20.52;;
52854;SDS011;38719;51.418;7.286;2022-12-10T13:58:01;53.00;;;20.35;;
52854;SDS011;38719;51.418;7.286;2022-12-10T14:00:53;57.00;;;22.02;;
52854;SDS011;38719;51.418;7.286;2022-12-10T14:03:32;49.38;;;21.70;;
52854;SDS011;38719;51.418;7.286;2022-12-10T14:06:20;54.22;;;21.42;;
52854;SDS011;38719;51.418;7.286;2022-12-10T14:08:54;60.55;;;19.25;;
52854;SDS011;38719;51.418;7.286;2022-12-10T14:11:27;50.28;;;20.52;;
52854;SDS011;38719;51.418;7.286;2022-12-10T14:14:03;56.22;;;21.85;;
52854;SDS011;38719;51.418;7.286;2022-12-10T14:16:33;55.30;;;21.98;;
52854;SDS011;38719;51.418;7.286;2022-12-10T14:19:03;52.88;;;21.35;;
52854;SDS011;38719;51.418;7.286;2022-12-10T14:21:34;53.28;;;20.90;;
52854;SDS011;38719;51.418;7.286;2022-12-10T14:24:11;63.80;;;23.10;;
52854;SDS011;38719;51.418;7.286;2022-12-10T14:26:56;45.90;;;19.08;;
52854;SDS011;38719;51.418;7.286;2022-12-10T14:29:25;52.80;;;20.15;;
52854;SDS011;38719;51.418;7.286;2022-12-10T14:31:54;52.55;;;21.05;;
52854;SDS011;38719;51.418;7.286;2022-12-10T14:34:24;57.50;;;22.50;;
52854;SDS011;38719;51.418;7.286;2022-12-10T14:36:54;52.47;;;22.77;;
52854;SDS011;38719;51.418;7.286;2022-12-10T14:39:26;50.50;;;19.70;;
52854;SDS011;38719;51.418;7.286;2022-12-10T14:41:56;49.92;;;20.02;;
52854;SDS011;38719;51.418;7.286;2022-12-10T14:44:27;54.55;;;20.02;;
52854;SDS011;38719;51.418;7.286;2022-12-10T14:47:02;59.80;;;21.95;;
52854;SDS011;38719;51.418;7.286;2022-12-10T14:49:37;52.03;;;20.88;;
52854;SDS011;38719;51.418;7.286;2022-12-10T14:52:10;46.97;;;21.23;;
52854;SDS011;38719;51.418;7.286;2022-12-10T14:54:40;54.10;;;21.77;;
52854;SDS011;38719;51.418;7.286;2022-12-10T14:57:11;54.97;;;20.90;;
52854;SDS011;38719;51.418;7.286;2022-12-10T15:02:16;47.17;;;19.77;;
52854;SDS011;38719;51.418;7.286;2022-12-10T15:04:47;49.97;;;19.88;;
52854;SDS011;38719;51.418;7.286;2022-12-10T15:07:17;54.63;;;21.05;;
52854;SDS011;38719;51.418;7.286;2022-12-10T15:09:48;63.42;;;21.25;;
52854;SDS011;38719;51.418;7.286;2022-12-10T15:12:27;52.17;;;21.08;;
52854;SDS011;38719;51.418;7.286;2022-12-10T15:15:02;55.38;;;21.35;;